Time;durP1;ratioP1;P1;durP2;ratioP2;P2;SDS_P1;SDS_P2;PMS_P1;PMS_P2;Temp;Humidity;BMP_temperature;BMP_pressure;BME280_temperature;BME280_humidity;BME280_pressure;Samples;Min_cycle;Max_cycle;Signal;HPM_P1;HPM_P2
2020/12/27 00:01:41;;;;;;;175.75;63.95;;;;;;;7.05;97.59;100019.66;6193889;23;20057;-69
2020/12/27 00:04:07;;;;;;;157.13;60.63;;;;;;;7.05;97.52;100025.75;6192171;23;20005;-69
2020/12/27 00:06:33;;;;;;;151.90;59.15;;;;;;;7.09;97.73;100039.50;6194019;23;20001;-69
2020/12/27 00:08:58;;;;;;;136.52;56.17;;;;;;;7.20;96.33;100035.94;6192939;23;20008;-68
2020/12/27 00:11:24;;;;;;;140.02;56.92;;;;;;;7.25;95.98;100037.19;6194728;23;20057;-68
2020/12/27 00:13:50;;;;;;;143.45;58.33;;;;;;;7.32;95.88;100032.25;6195315;23;20215;-69
2020/12/27 00:16:25;;;;;;;149.93;58.50;;;;;;;7.45;95.77;100032.00;6195055;23;20009;-69
2020/12/27 00:18:51;;;;;;;151.00;58.25;;;;;;;7.93;91.16;100027.63;6195083;23;20005;-69
2020/12/27 00:21:17;;;;;;;138.50;54.03;;;;;;;7.80;90.54;100037.63;6194566;23;20202;-68
2020/12/27 00:23:42;;;;;;;137.48;55.85;;;;;;;7.60;92.50;100041.19;6194089;23;20004;-69
2020/12/27 00:26:14;;;;;;;141.80;56.33;;;;;;;7.49;92.87;100050.06;6194294;23;20011;-67
2020/12/27 00:28:41;;;;;;;149.20;55.50;;;;;;;7.47;93.40;100061.69;6195845;23;20001;-69
2020/12/27 00:31:06;;;;;;;137.57;56.03;;;;;;;7.66;92.78;100053.84;6194295;23;20298;-69
2020/12/27 00:33:32;;;;;;;145.55;56.78;;;;;;;7.52;93.09;100062.97;6195655;23;20004;-68
2020/12/27 00:35:59;;;;;;;140.75;54.30;;;;;;;7.51;93.82;100053.38;6194017;23;20004;-67
2020/12/27 00:38:25;;;;;;;133.05;54.13;;;;;;;7.55;94.56;100053.94;6195821;23;20004;-69
2020/12/27 00:40:50;;;;;;;138.38;54.63;;;;;;;7.58;93.84;100051.03;6192473;23;20005;-68
2020/12/27 00:43:16;;;;;;;135.38;53.70;;;;;;;7.68;93.96;100052.72;6195277;23;20266;-68
2020/12/27 00:45:41;;;;;;;138.10;55.72;;;;;;;7.65;93.81;100054.81;6193955;23;20005;-68
2020/12/27 00:48:07;;;;;;;132.13;55.08;;;;;;;7.70;93.88;100052.59;6195292;23;19997;-68
2020/12/27 00:50:32;;;;;;;138.05;55.83;;;;;;;7.87;91.90;100044.00;6193365;23;20005;-68
2020/12/27 00:52:58;;;;;;;134.18;57.00;;;;;;;7.79;91.98;100037.75;6195484;23;20003;-68
2020/12/27 00:55:23;;;;;;;144.07;55.92;;;;;;;7.66;92.77;100030.09;6193929;23;20056;-69
2020/12/27 00:57:49;;;;;;;139.55;56.38;;;;;;;8.15;89.94;100026.53;6194793;23;20005;-69
2020/12/27 01:00:14;;;;;;;142.00;56.55;;;;;;;7.90;90.88;100032.34;6194323;23;20334;-69
2020/12/27 01:02:40;;;;;;;141.25;54.70;;;;;;;7.74;91.92;100032.91;6192830;23;20068;-69
2020/12/27 01:05:05;;;;;;;142.20;55.80;;;;;;;7.72;92.59;100044.53;6194785;23;20024;-68
2020/12/27 01:07:31;;;;;;;144.80;55.72;;;;;;;7.61;92.98;100037.59;6194509;23;20004;-69
2020/12/27 01:09:56;;;;;;;153.70;56.95;;;;;;;7.47;93.40;100045.88;6195007;23;20314;-68
2020/12/27 01:12:22;;;;;;;150.88;57.42;;;;;;;7.46;95.11;100050.31;6193692;23;20004;-68
2020/12/27 01:14:47;;;;;;;166.05;63.17;;;;;;;7.49;93.97;100047.41;6195394;23;20024;-69
2020/12/27 01:17:12;;;;;;;155.85;58.95;;;;;;;7.47;94.26;100044.09;6193598;23;20004;-68
2020/12/27 01:19:38;;;;;;;159.13;58.38;;;;;;;7.56;93.94;100047.72;6194404;23;20049;-69
2020/12/27 01:22:04;;;;;;;153.75;59.30;;;;;;;7.52;94.28;100041.03;6193887;23;20044;-68
2020/12/27 01:24:29;;;;;;;146.38;57.70;;;;;;;7.60;95.05;100051.75;6195513;23;20005;-69
2020/12/27 01:26:54;;;;;;;160.50;59.33;;;;;;;7.66;94.09;100041.50;6193706;23;20028;-68
2020/12/27 01:29:20;;;;;;;141.68;55.67;;;;;;;7.62;94.89;100042.72;6194447;23;20005;-69
2020/12/27 01:31:45;;;;;;;135.73;54.33;;;;;;;7.71;93.92;100037.59;6193516;23;20001;-67
2020/12/27 01:34:11;;;;;;;147.25;55.40;;;;;;;7.78;93.58;100031.66;6194908;23;20024;-68
2020/12/27 01:36:37;;;;;;;157.82;55.35;;;;;;;7.81;93.08;100033.19;6193609;23;20226;-69
2020/12/27 01:39:06;;;;;;;154.73;58.30;;;;;;;7.74;93.62;100042.59;6195250;23;20028;-67
2020/12/27 01:41:32;;;;;;;136.15;55.08;;;;;;;7.74;93.58;100043.44;6193918;23;20016;-68
2020/12/27 01:44:07;;;;;;;149.30;57.88;;;;;;;7.79;93.66;100029.84;6195102;23;20304;-69
2020/12/27 01:46:35;;;;;;;141.68;55.72;;;;;;;8.02;91.97;100032.09;6192007;23;20009;-69
2020/12/27 01:49:01;;;;;;;152.10;53.90;;;;;;;7.83;92.49;100012.78;6195080;23;20001;-69
2020/12/27 01:51:27;;;;;;;135.55;52.35;;;;;;;8.17;90.44;100018.47;6193997;23;20052;-69
2020/12/27 01:53:52;;;;;;;142.30;53.70;;;;;;;8.02;89.86;100020.69;6193513;23;20001;-68
2020/12/27 01:56:21;;;;;;;161.60;58.33;;;;;;;7.98;90.60;100019.31;6194409;23;20001;-69
2020/12/27 01:58:47;;;;;;;155.63;56.90;;;;;;;7.96;91.26;100008.91;6193864;23;20186;-69
2020/12/27 02:01:14;;;;;;;161.05;61.20;;;;;;;7.71;92.41;100001.53;6194468;23;20379;-69
2020/12/27 02:03:43;;;;;;;171.80;62.08;;;;;;;7.58;93.18;100014.16;6193122;23;20023;-67
2020/12/27 02:06:08;;;;;;;160.35;59.50;;;;;;;7.43;94.99;100010.25;6193437;23;20009;-69
2020/12/27 02:08:36;;;;;;;178.40;60.78;;;;;;;7.39;95.22;100014.94;6193542;23;20048;-68
2020/12/27 02:11:02;;;;;;;167.48;60.78;;;;;;;7.38;95.79;100012.44;6194799;23;20008;-69
2020/12/27 02:13:28;;;;;;;155.68;58.90;;;;;;;7.58;95.45;100019.41;6193105;23;20052;-67
2020/12/27 02:15:53;;;;;;;175.48;60.13;;;;;;;7.60;94.93;100028.84;6194890;23;20028;-69
2020/12/27 02:18:19;;;;;;;146.90;54.17;;;;;;;7.63;94.00;100025.94;6193070;23;20005;-68
2020/12/27 02:20:44;;;;;;;140.50;53.40;;;;;;;7.80;93.15;100020.97;6194522;23;20001;-69
2020/12/27 02:23:16;;;;;;;143.85;53.05;;;;;;;7.86;92.33;100033.59;6193337;23;20008;-67
2020/12/27 02:25:42;;;;;;;138.93;53.28;;;;;;;7.65;93.27;100026.66;6194347;23;20001;-69
2020/12/27 02:28:07;;;;;;;132.98;51.70;;;;;;;7.75;93.69;100023.19;6193038;23;20007;-69
2020/12/27 02:30:33;;;;;;;141.30;54.15;;;;;;;7.81;93.35;100020.84;6194620;23;20232;-67
2020/12/27 02:32:58;;;;;;;141.38;54.28;;;;;;;7.78;92.92;100023.75;6192907;23;20056;-69
2020/12/27 02:35:24;;;;;;;145.55;53.92;;;;;;;7.73;93.36;100031.22;6194217;23;20032;-69
2020/12/27 02:37:49;;;;;;;140.90;52.40;;;;;;;7.57;95.24;100023.84;6192949;23;20035;-69
2020/12/27 02:40:15;;;;;;;161.75;56.08;;;;;;;7.57;94.47;100018.59;6194700;23;20052;-68
2020/12/27 02:42:41;;;;;;;157.60;55.00;;;;;;;7.76;94.38;100017.78;6193954;23;20195;-68
2020/12/27 02:45:10;;;;;;;145.32;54.85;;;;;;;7.67;93.65;100032.59;6193233;23;20052;-67
2020/12/27 02:47:37;;;;;;;152.40;55.53;;;;;;;7.50;95.43;100035.91;6193870;23;20283;-69
2020/12/27 02:50:05;;;;;;;158.77;58.22;;;;;;;7.41;95.67;100020.91;6193317;23;20009;-69
2020/12/27 02:52:31;;;;;;;155.48;54.00;;;;;;;7.67;95.09;100013.31;6194129;23;19997;-70
2020/12/27 02:54:56;;;;;;;159.98;58.13;;;;;;;7.62;94.74;100026.09;6192925;23;20198;-69
2020/12/27 02:57:22;;;;;;;156.52;57.30;;;;;;;7.40;96.78;100031.59;6194254;23;20017;-68
2020/12/27 02:59:47;;;;;;;146.48;55.20;;;;;;;7.55;96.54;100028.44;6192771;23;20001;-68
2020/12/27 03:02:12;;;;;;;161.20;55.75;;;;;;;7.45;97.21;100030.22;6194533;23;20061;-69
2020/12/27 03:04:38;;;;;;;147.18;53.70;;;;;;;7.83;94.43;100021.53;6192375;23;20024;-69
2020/12/27 03:07:03;;;;;;;166.20;55.40;;;;;;;7.79;93.59;100009.59;6194507;23;20039;-67
2020/12/27 03:09:29;;;;;;;165.90;56.20;;;;;;;7.68;94.38;100002.66;6192876;23;20005;-69
2020/12/27 03:11:54;;;;;;;166.90;56.65;;;;;;;7.57;94.91;100008.03;6193944;23;20012;-69
2020/12/27 03:14:20;;;;;;;162.90;60.13;;;;;;;7.58;95.17;100006.25;6192910;23;20024;-69
2020/12/27 03:16:45;;;;;;;175.23;60.00;;;;;;;7.37;96.36;100024.78;6194138;23;20273;-69
2020/12/27 03:19:11;;;;;;;168.13;57.72;;;;;;;7.36;96.96;100021.31;6192919;23;20028;-67
2020/12/27 03:21:36;;;;;;;172.25;60.15;;;;;;;7.42;96.76;100024.38;6193401;23;20048;-69
2020/12/27 03:24:01;;;;;;;171.43;60.85;;;;;;;7.32;97.05;100024.34;6193128;23;20298;-67
2020/12/27 03:26:27;;;;;;;177.15;58.85;;;;;;;7.45;97.44;100022.31;6192816;23;20009;-69
2020/12/27 03:28:52;;;;;;;169.35;59.95;;;;;;;7.40;97.24;100028.94;6193691;23;20001;-67
2020/12/27 03:31:18;;;;;;;180.80;62.55;;;;;;;7.25;97.26;100029.28;6192799;23;20306;-69
2020/12/27 03:33:43;;;;;;;154.48;57.75;;;;;;;7.26;99.06;100030.13;6193137;23;20029;-68
2020/12/27 03:36:09;;;;;;;159.93;59.35;;;;;;;7.52;96.70;100023.44;6192635;23;20357;-67
2020/12/27 03:38:34;;;;;;;151.88;56.42;;;;;;;7.38;97.39;100017.72;6192439;23;20418;-69
2020/12/27 03:41:01;;;;;;;151.55;57.40;;;;;;;7.57;96.99;100031.75;6193499;23;20028;-68
2020/12/27 03:43:27;;;;;;;150.55;55.75;;;;;;;7.33;96.79;100018.13;6193271;23;20187;-67
2020/12/27 03:45:52;;;;;;;176.10;58.63;;;;;;;7.07;97.89;100020.34;6193651;23;20028;-67
2020/12/27 03:48:17;;;;;;;160.87;60.30;;;;;;;7.27;97.97;100034.44;6195872;23;20171;-69
2020/12/27 03:50:43;;;;;;;159.73;59.53;;;;;;;7.09;98.39;100025.50;6194514;23;20072;-68
2020/12/27 03:53:08;;;;;;;164.03;59.17;;;;;;;7.19;99.20;100029.00;6195999;23;20007;-68
2020/12/27 03:55:34;;;;;;;163.73;60.40;;;;;;;7.31;98.04;100028.78;6194549;23;20016;-67
2020/12/27 03:57:59;;;;;;;168.95;59.15;;;;;;;7.31;98.81;100025.31;6195999;23;20001;-68
2020/12/27 04:00:29;;;;;;;163.75;57.60;;;;;;;7.23;99.42;100035.66;6194387;23;20064;-69
2020/12/27 04:02:54;;;;;;;167.32;61.25;;;;;;;7.41;97.83;100034.09;6195820;23;20012;-68
2020/12/27 04:05:19;;;;;;;157.30;61.58;;;;;;;7.24;98.75;100039.97;6194114;23;20060;-67
2020/12/27 04:07:45;;;;;;;165.90;61.15;;;;;;;7.08;99.75;100042.25;6196061;23;20326;-69
2020/12/27 04:10:10;;;;;;;167.43;61.67;;;;;;;7.06;100.00;100047.66;6194401;23;20005;-69
2020/12/27 04:12:36;;;;;;;192.50;65.78;;;;;;;7.09;100.00;100042.13;6195641;23;20024;-68
2020/12/27 04:15:01;;;;;;;188.15;61.33;;;;;;;7.13;100.00;100040.06;6194285;23;20230;-69
2020/12/27 04:17:27;;;;;;;188.10;60.70;;;;;;;7.06;100.00;100037.13;6195416;23;20314;-67
2020/12/27 04:19:52;;;;;;;188.00;61.05;;;;;;;7.12;100.00;100043.66;6194312;23;20024;-67
2020/12/27 04:22:17;;;;;;;195.47;61.53;;;;;;;7.02;100.00;100033.09;6195277;23;20044;-68
2020/12/27 04:24:43;;;;;;;175.60;59.53;;;;;;;6.98;100.00;100035.16;6193458;23;20067;-67
2020/12/27 04:27:08;;;;;;;173.65;57.55;;;;;;;6.97;100.00;100024.75;6195456;23;20008;-67
2020/12/27 04:29:34;;;;;;;150.90;52.07;;;;;;;6.99;100.00;100028.09;6195578;23;20024;-68
2020/12/27 04:32:00;;;;;;;152.75;50.65;;;;;;;6.88;100.00;100033.44;6194131;23;20015;-67
2020/12/27 04:34:25;;;;;;;139.17;48.50;;;;;;;6.96;100.00;100037.09;6195562;23;20008;-68
2020/12/27 04:36:51;;;;;;;123.43;45.70;;;;;;;6.91;100.00;100044.53;6194527;23;20386;-67
2020/12/27 04:39:16;;;;;;;114.17;38.13;;;;;;;6.98;100.00;100050.94;6194056;23;20273;-67
2020/12/27 04:41:41;;;;;;;65.30;25.38;;;;;;;6.94;100.00;100067.13;6194118;23;20295;-68
2020/12/27 04:44:08;;;;;;;55.37;21.70;;;;;;;6.97;100.00;100064.25;6195943;23;20001;-68
2020/12/27 04:46:34;;;;;;;40.27;16.43;;;;;;;7.00;100.00;100059.56;6193973;23;20012;-68
2020/12/27 04:49:00;;;;;;;28.93;9.63;;;;;;;6.97;100.00;100049.28;6196000;23;20021;-69
2020/12/27 04:51:26;;;;;;;22.75;8.07;;;;;;;6.97;100.00;100065.06;6193675;23;20005;-68
2020/12/27 04:53:55;;;;;;;18.83;8.17;;;;;;;6.93;100.00;100057.56;6194714;23;20189;-67
2020/12/27 04:56:22;;;;;;;16.63;7.20;;;;;;;6.98;100.00;100063.28;6192051;23;20357;-68
2020/12/27 04:58:48;;;;;;;16.03;7.33;;;;;;;6.96;100.00;100063.41;6194843;23;20020;-66
2020/12/27 05:01:15;;;;;;;17.30;8.13;;;;;;;6.94;100.00;100059.25;6194545;23;20005;-67
2020/12/27 05:03:40;;;;;;;12.23;6.93;;;;;;;6.95;100.00;100067.00;6195247;23;20051;-68
2020/12/27 05:06:14;;;;;;;13.13;6.50;;;;;;;6.97;100.00;100058.97;6193621;23;20028;-68
2020/12/27 05:08:39;;;;;;;13.85;6.93;;;;;;;7.01;100.00;100055.94;6195677;23;20005;-66
2020/12/27 05:11:05;;;;;;;15.27;6.03;;;;;;;6.90;100.00;100060.47;6193771;23;20274;-68
2020/12/27 05:13:30;;;;;;;13.37;6.20;;;;;;;6.89;100.00;100057.00;6195472;23;20025;-68
2020/12/27 05:15:56;;;;;;;12.37;6.20;;;;;;;6.86;100.00;100065.16;6193733;23;20012;-69
2020/12/27 05:18:21;;;;;;;11.80;4.90;;;;;;;6.82;100.00;100062.91;6195067;23;20064;-68
2020/12/27 05:20:50;;;;;;;6.20;3.90;;;;;;;6.80;100.00;100041.16;6195058;23;20005;-68
2020/12/27 05:23:16;;;;;;;8.03;4.97;;;;;;;6.86;100.00;100046.72;6194735;23;20011;-67
2020/12/27 05:25:41;;;;;;;7.23;4.33;;;;;;;6.85;100.00;100052.97;6193901;23;20049;-68
2020/12/27 05:28:09;;;;;;;7.63;4.00;;;;;;;6.84;100.00;100061.81;6193920;23;20024;-67
2020/12/27 05:30:36;;;;;;;7.30;4.20;;;;;;;6.82;100.00;100053.22;6194721;23;20012;-67
2020/12/27 05:33:10;;;;;;;4.33;2.67;;;;;;;6.82;100.00;100061.13;6193844;23;20012;-68
2020/12/27 05:35:36;;;;;;;7.77;2.13;;;;;;;6.75;100.00;100074.94;6194911;23;20005;-68
2020/12/27 05:38:01;;;;;;;5.93;3.20;;;;;;;6.64;100.00;100057.41;6193524;23;20098;-67
2020/12/27 05:40:34;;;;;;;7.27;3.40;;;;;;;6.76;100.00;100076.59;6195146;23;20005;-68
2020/12/27 05:43:05;;;;;;;5.70;3.00;;;;;;;6.77;100.00;100073.00;6193740;23;20009;-68
2020/12/27 05:45:32;;;;;;;6.83;3.57;;;;;;;6.72;100.00;100068.97;6195058;23;20036;-67
2020/12/27 05:47:59;;;;;;;5.10;2.73;;;;;;;6.69;100.00;100090.28;6192094;23;20013;-67
2020/12/27 05:50:26;;;;;;;6.50;3.67;;;;;;;6.73;100.00;100096.94;6194921;23;20008;-67
2020/12/27 05:52:59;;;;;;;5.10;3.20;;;;;;;6.72;100.00;100089.19;6193444;23;20025;-68
2020/12/27 05:55:25;;;;;;;9.63;5.40;;;;;;;6.76;100.00;100077.44;6193567;23;20421;-68
2020/12/27 05:57:54;;;;;;;5.60;3.83;;;;;;;6.74;100.00;100084.63;6193060;23;20001;-67
2020/12/27 06:00:24;;;;;;;3.67;2.23;;;;;;;6.65;100.00;100093.28;6194670;23;20317;-68
2020/12/27 06:03:00;;;;;;;7.47;3.30;;;;;;;6.67;100.00;100086.09;6193114;23;20004;-68
2020/12/27 06:05:47;;;;;;;8.27;4.00;;;;;;;6.67;100.00;100080.84;6194789;23;20095;-67
2020/12/27 06:08:27;;;;;;;7.83;4.60;;;;;;;6.66;100.00;100085.25;6192972;23;20044;-68
2020/12/27 06:11:20;;;;;;;7.53;4.47;;;;;;;6.65;100.00;100091.50;6194814;23;20005;-66
2020/12/27 06:14:14;;;;;;;7.40;4.20;;;;;;;6.69;100.00;100078.91;6193008;23;20295;-67
2020/12/27 06:16:45;;;;;;;6.83;3.93;;;;;;;6.65;100.00;100073.06;6194586;23;20016;-68
2020/12/27 06:19:23;;;;;;;9.77;5.70;;;;;;;6.60;100.00;100088.41;6193582;23;20032;-67
2020/12/27 06:22:03;;;;;;;9.63;4.70;;;;;;;6.61;100.00;100090.09;6194654;23;20004;-68
2020/12/27 06:24:30;;;;;;;7.97;5.03;;;;;;;6.58;100.00;100081.59;6193729;23;20028;-68
2020/12/27 06:26:59;;;;;;;7.10;4.63;;;;;;;6.59;100.00;100096.44;6194608;23;20029;-68
2020/12/27 06:29:34;;;;;;;9.00;5.37;;;;;;;6.62;100.00;100094.38;6192500;23;20028;-67
2020/12/27 06:32:03;;;;;;;6.53;4.40;;;;;;;6.51;100.00;100099.69;6193346;23;20005;-68
2020/12/27 06:34:29;;;;;;;6.77;3.60;;;;;;;6.41;100.00;100080.38;6192841;23;20012;-68
2020/12/27 06:36:57;;;;;;;5.97;3.73;;;;;;;6.47;100.00;100094.81;6194638;23;20028;-67
2020/12/27 06:39:28;;;;;;;9.37;5.70;;;;;;;6.44;100.00;100085.38;6193312;23;20201;-67
2020/12/27 06:42:10;;;;;;;10.17;4.53;;;;;;;6.34;100.00;100076.59;6194454;23;20230;-66
2020/12/27 06:44:49;;;;;;;10.53;5.40;;;;;;;6.37;100.00;100094.75;6193407;23;20005;-66
2020/12/27 06:47:16;;;;;;;11.97;6.00;;;;;;;6.46;100.00;100091.34;6194713;23;20057;-67
2020/12/27 06:49:42;;;;;;;13.90;7.00;;;;;;;6.50;100.00;100098.03;6192999;23;20016;-66
2020/12/27 06:52:22;;;;;;;7.83;5.20;;;;;;;6.40;100.00;100099.75;6194515;23;20028;-68
2020/12/27 06:54:53;;;;;;;12.30;6.30;;;;;;;6.42;100.00;100105.72;6192818;23;20026;-68
2020/12/27 06:57:45;;;;;;;6.50;3.90;;;;;;;6.42;100.00;100108.34;6194189;23;20043;-68
2020/12/27 07:00:28;;;;;;;8.93;5.10;;;;;;;6.42;100.00;100108.34;6193007;23;20012;-68
2020/12/27 07:03:10;;;;;;;8.77;3.50;;;;;;;6.45;100.00;100094.13;6194009;23;20016;-67
2020/12/27 07:05:38;;;;;;;7.07;3.73;;;;;;;6.38;100.00;100099.88;6192933;23;20005;-68
2020/12/27 07:08:05;;;;;;;6.33;3.47;;;;;;;6.37;100.00;100105.28;6194326;23;20005;-68
2020/12/27 07:10:36;;;;;;;4.67;2.87;;;;;;;6.26;100.00;100077.22;6192948;23;20194;-68
2020/12/27 07:13:10;;;;;;;5.87;3.40;;;;;;;6.45;100.00;100078.34;6194421;23;20009;-68
2020/12/27 07:15:54;;;;;;;4.75;2.80;;;;;;;6.38;100.00;100076.22;6192971;23;20013;-66
2020/12/27 07:18:27;;;;;;;5.50;2.55;;;;;;;6.35;100.00;100080.91;6194356;23;20028;-68
2020/12/27 07:20:57;;;;;;;5.43;3.38;;;;;;;6.35;100.00;100071.22;6194356;23;20032;-66
2020/12/27 07:23:25;;;;;;;3.67;2.40;;;;;;;6.34;100.00;100068.72;6196603;23;20005;-66
2020/12/27 07:25:58;;;;;;;5.43;2.93;;;;;;;6.38;100.00;100081.47;6194804;23;20060;-67
2020/12/27 07:28:25;;;;;;;7.80;3.73;;;;;;;6.39;100.00;100088.41;6195004;23;20032;-67
2020/12/27 07:31:02;;;;;;;5.23;3.20;;;;;;;6.40;100.00;100094.50;6194653;23;20020;-66
2020/12/27 07:33:46;;;;;;;6.40;4.00;;;;;;;6.35;100.00;100097.50;6196705;23;20005;-68
2020/12/27 07:36:11;;;;;;;5.80;3.80;;;;;;;6.40;100.00;100097.97;6194561;23;20005;-68
2020/12/27 07:38:39;;;;;;;4.90;3.10;;;;;;;6.36;100.00;100093.91;6196433;23;20060;-68
2020/12/27 07:41:06;;;;;;;5.43;3.20;;;;;;;6.38;100.00;100107.78;6193208;23;20009;-66
2020/12/27 07:43:32;;;;;;;10.33;4.73;;;;;;;6.39;100.00;100100.72;6196491;23;20005;-68
2020/12/27 07:46:07;;;;;;;7.27;4.10;;;;;;;6.36;100.00;100095.72;6194595;23;20005;-68
2020/12/27 07:48:39;;;;;;;3.58;2.20;;;;;;;6.38;100.00;100104.31;6195889;23;20061;-68
2020/12/27 07:51:18;;;;;;;7.47;3.70;;;;;;;6.34;100.00;100106.34;6194701;23;20056;-67
2020/12/27 07:53:54;;;;;;;15.03;5.67;;;;;;;6.37;100.00;100127.16;6196004;23;20021;-67
2020/12/27 07:56:27;;;;;;;17.27;7.47;;;;;;;6.39;100.00;100112.06;6194530;23;20020;-67
2020/12/27 07:58:54;;;;;;;13.40;7.30;;;;;;;6.41;100.00;100119.84;6196292;23;20008;-66
2020/12/27 08:01:29;;;;;;;4.90;2.97;;;;;;;6.38;100.00;100107.78;6194917;23;20056;-68
2020/12/27 08:03:56;;;;;;;5.13;4.07;;;;;;;6.37;100.00;100100.00;6195720;23;20234;-68
2020/12/27 08:06:24;;;;;;;5.73;3.87;;;;;;;6.45;100.00;100102.84;6194588;23;20033;-68
2020/12/27 08:08:58;;;;;;;6.17;4.50;;;;;;;6.44;100.00;100106.44;6196414;23;20212;-68
2020/12/27 08:11:25;;;;;;;13.00;5.77;;;;;;;6.48;100.00;100102.59;6194781;23;20004;-66
2020/12/27 08:13:52;;;;;;;6.73;5.07;;;;;;;6.57;100.00;100101.81;6196118;23;20054;-66
2020/12/27 08:16:18;;;;;;;9.53;6.20;;;;;;;6.52;100.00;100092.66;6193565;23;20005;-67
2020/12/27 08:18:43;;;;;;;10.90;6.67;;;;;;;6.55;100.00;100103.75;6196075;23;20458;-68
2020/12/27 08:21:08;;;;;;;8.73;6.03;;;;;;;6.57;100.00;100099.19;6194292;23;20005;-66
2020/12/27 08:23:34;;;;;;;8.43;4.93;;;;;;;6.56;100.00;100097.53;6195538;23;20005;-66
2020/12/27 08:26:00;;;;;;;10.67;6.10;;;;;;;6.69;100.00;100092.06;6194875;23;20057;-68
2020/12/27 08:28:26;;;;;;;11.37;7.40;;;;;;;6.68;100.00;100093.88;6193796;23;20440;-68
2020/12/27 08:30:51;;;;;;;12.50;6.60;;;;;;;6.64;100.00;100102.97;6195318;23;20009;-68
2020/12/27 08:33:19;;;;;;;13.47;6.73;;;;;;;6.62;100.00;100101.44;6194488;23;20005;-68
2020/12/27 08:35:56;;;;;;;16.17;8.77;;;;;;;6.55;100.00;100097.66;6195406;23;20210;-68
2020/12/27 08:38:40;;;;;;;9.90;6.20;;;;;;;6.54;100.00;100101.25;6194158;23;20013;-68
2020/12/27 08:41:09;;;;;;;15.35;8.60;;;;;;;6.50;100.00;100091.94;6193841;23;20286;-68
2020/12/27 08:43:53;;;;;;;14.52;8.32;;;;;;;6.58;100.00;100087.72;6194847;23;20020;-68
2020/12/27 08:46:21;;;;;;;13.38;8.32;;;;;;;6.54;100.00;100074.94;6193725;23;20012;-68
2020/12/27 08:48:56;;;;;;;14.53;8.67;;;;;;;6.54;100.00;100088.91;6194906;23;20217;-68
2020/12/27 08:51:23;;;;;;;23.57;11.23;;;;;;;6.41;100.00;100046.19;6193732;23;20071;-68
2020/12/27 08:53:49;;;;;;;16.50;8.77;;;;;;;6.58;100.00;100081.59;6194798;23;20012;-68
2020/12/27 08:56:15;;;;;;;19.33;10.17;;;;;;;6.58;100.00;100084.25;6195286;23;20005;-67
2020/12/27 08:58:52;;;;;;;16.47;10.83;;;;;;;6.62;100.00;100069.88;6194327;23;20168;-67
2020/12/27 09:01:23;;;;;;;18.53;9.43;;;;;;;6.64;100.00;100057.41;6195079;23;20005;-67
2020/12/27 09:03:49;;;;;;;17.50;8.50;;;;;;;6.58;100.00;100044.78;6193893;23;20009;-67
2020/12/27 09:06:15;;;;;;;17.83;10.00;;;;;;;6.56;100.00;100041.44;6195267;23;20290;-68
2020/12/27 09:08:41;;;;;;;24.27;11.67;;;;;;;6.56;100.00;100041.44;6194334;23;20005;-66
2020/12/27 09:11:06;;;;;;;21.30;10.63;;;;;;;6.52;100.00;100034.78;6193901;23;20015;-68
2020/12/27 09:13:42;;;;;;;23.40;11.87;;;;;;;6.53;100.00;100041.69;6193475;23;20005;-68
2020/12/27 09:16:07;;;;;;;23.40;13.23;;;;;;;6.54;100.00;100044.19;6193874;23;20009;-68
2020/12/27 09:18:35;;;;;;;22.37;13.23;;;;;;;6.53;100.00;100039.06;6192168;23;20009;-67
2020/12/27 09:21:06;;;;;;;22.87;13.77;;;;;;;6.65;100.00;100040.66;6193856;23;20008;-67
2020/12/27 09:23:32;;;;;;;30.90;16.10;;;;;;;6.73;100.00;100028.53;6194197;23;20005;-68
2020/12/27 09:26:13;;;;;;;39.00;18.00;;;;;;;6.57;100.00;100022.91;6193266;23;20012;-68
2020/12/27 09:28:40;;;;;;;40.70;20.47;;;;;;;6.71;100.00;100025.19;6195075;23;19997;-68
2020/12/27 09:31:06;;;;;;;43.47;22.33;;;;;;;6.69;100.00;100023.66;6193105;23;20056;-68
2020/12/27 09:33:39;;;;;;;43.47;23.50;;;;;;;6.67;100.00;100012.41;6195156;23;20001;-68
2020/12/27 09:36:06;;;;;;;43.20;22.45;;;;;;;6.68;100.00;100008.81;6193787;23;20013;-68
2020/12/27 09:38:43;;;;;;;43.65;23.75;;;;;;;6.70;100.00;100005.09;6195306;23;20275;-67
2020/12/27 09:41:09;;;;;;;41.85;20.50;;;;;;;6.64;100.00;99999.53;6193466;23;20016;-68
2020/12/27 09:43:53;;;;;;;46.80;23.80;;;;;;;6.66;100.00;99994.97;6194760;23;20053;-67
2020/12/27 09:46:37;;;;;;;39.90;20.33;;;;;;;6.71;100.00;100006.75;6192892;23;20013;-66
2020/12/27 09:49:18;;;;;;;44.35;23.88;;;;;;;6.71;100.00;100001.50;6195037;23;20024;-68
2020/12/27 09:51:43;;;;;;;52.70;24.60;;;;;;;6.80;100.00;99991.16;6193839;23;20005;-66
2020/12/27 09:54:09;;;;;;;47.23;24.77;;;;;;;6.73;100.00;99975.88;6194972;23;20139;-66
2020/12/27 09:56:43;;;;;;;53.60;25.83;;;;;;;6.77;100.00;99967.72;6193535;23;20202;-67
2020/12/27 09:59:10;;;;;;;57.17;27.13;;;;;;;6.80;100.00;99968.31;6195007;23;20024;-67
2020/12/27 10:01:36;;;;;;;48.53;24.03;;;;;;;6.79;100.00;99978.97;6193705;23;20015;-66
2020/12/27 10:04:02;;;;;;;45.90;22.70;;;;;;;6.88;100.00;99978.16;6194667;23;20215;-68
2020/12/27 10:06:27;;;;;;;45.53;24.20;;;;;;;6.88;100.00;99970.25;6193160;23;20013;-68
2020/12/27 10:08:53;;;;;;;47.97;25.30;;;;;;;6.98;100.00;99950.91;6193690;23;20009;-67
2020/12/27 10:11:18;;;;;;;44.50;22.83;;;;;;;6.96;100.00;99954.63;6193344;23;20005;-66
2020/12/27 10:13:44;;;;;;;47.40;24.67;;;;;;;6.95;100.00;99959.06;6195112;23;20048;-68
2020/12/27 10:16:09;;;;;;;44.57;22.97;;;;;;;6.96;100.00;99949.38;6191779;23;20222;-68
2020/12/27 10:18:35;;;;;;;44.08;21.98;;;;;;;6.92;100.00;99922.47;6194441;23;20009;-67
2020/12/27 10:21:00;;;;;;;37.33;18.95;;;;;;;6.96;100.00;99923.06;6193230;23;20019;-68
2020/12/27 10:23:25;;;;;;;36.22;20.40;;;;;;;6.98;100.00;99914.03;6194833;23;20009;-66
2020/12/27 10:25:51;;;;;;;43.33;21.23;;;;;;;7.03;100.00;99913.66;6193028;23;20056;-66
2020/12/27 10:28:16;;;;;;;38.53;18.10;;;;;;;6.94;100.00;99886.31;6195029;23;20028;-68
2020/12/27 10:30:42;;;;;;;33.73;18.67;;;;;;;7.12;100.00;99912.00;6193587;23;20263;-68
2020/12/27 10:33:09;;;;;;;35.73;18.97;;;;;;;7.14;100.00;99921.44;6193938;23;20029;-69
2020/12/27 10:35:35;;;;;;;39.42;19.98;;;;;;;7.31;100.00;99920.78;6194559;23;20289;-67
2020/12/27 10:38:00;;;;;;;39.70;20.20;;;;;;;7.41;100.00;99918.16;6193331;23;20011;-67
2020/12/27 10:40:26;;;;;;;33.57;18.33;;;;;;;7.41;100.00;99897.09;6194230;23;20065;-68
2020/12/27 10:42:51;;;;;;;32.50;16.92;;;;;;;7.39;100.00;99898.19;6193133;23;20005;-68
2020/12/27 10:45:17;;;;;;;27.20;15.53;;;;;;;7.54;100.00;99897.66;6194366;23;20104;-66
2020/12/27 10:47:42;;;;;;;31.30;17.63;;;;;;;7.50;100.00;99898.91;6192831;23;20222;-67
2020/12/27 10:50:07;;;;;;;26.98;15.57;;;;;;;7.54;100.00;99891.53;6194471;23;20008;-67
2020/12/27 10:52:33;;;;;;;27.50;15.27;;;;;;;7.55;100.00;99875.59;6192944;23;19997;-67
2020/12/27 10:54:58;;;;;;;28.17;15.60;;;;;;;7.45;100.00;99863.41;6194344;23;20024;-69
2020/12/27 10:57:23;;;;;;;31.48;17.85;;;;;;;7.55;100.00;99858.94;6192734;23;20024;-67
2020/12/27 10:59:49;;;;;;;35.80;19.40;;;;;;;7.53;100.00;99858.25;6194351;23;20020;-67
2020/12/27 11:02:14;;;;;;;33.63;18.85;;;;;;;7.56;100.00;99853.53;6192764;23;20302;-67
2020/12/27 11:04:40;;;;;;;32.63;16.83;;;;;;;7.51;100.00;99852.31;6194122;23;20016;-67
2020/12/27 11:07:06;;;;;;;38.03;19.90;;;;;;;7.62;100.00;99833.69;6192899;23;20032;-67
2020/12/27 11:09:31;;;;;;;42.15;21.48;;;;;;;7.63;100.00;99830.94;6194827;23;20017;-68
2020/12/27 11:11:56;;;;;;;37.08;21.58;;;;;;;7.68;100.00;99836.59;6191972;23;20013;-67
2020/12/27 11:14:22;;;;;;;38.67;20.75;;;;;;;7.74;100.00;99824.66;6193348;23;20056;-66
2020/12/27 11:16:48;;;;;;;40.60;22.17;;;;;;;7.80;100.00;99813.56;6193787;23;20025;-68
2020/12/27 11:19:13;;;;;;;44.35;23.58;;;;;;;7.76;100.00;99804.25;6193579;23;20148;-68